Bookmark and Share
Track history (hours):
 

BBC Congo

Last reported at 2014-Apr-21 22:20 UTC. Time now 2014-Apr-24 02:28 UTC.
Position N 37°37' W 030°05'.

Length 144 m; draft 7.1 m.

Type: Ship. MMSI: 305466000.

NotesDate/timePositionNaut miles runAvg speedWind from/ knotsBaromVisibWave heightAir tempDewpointWater temp
2014-Apr-21 22:20N 37°37' W 030°05'911.4
2014-Apr-21 21:33N 37°40' W 029°55'1212.1
2014-Apr-21 20:33N 37°44' W 029°41'1212.5
2014-Apr-21 19:34N 37°49' W 029°26'1212.3
2014-Apr-21 18:33N 37°53' W 029°12'1212.4
2014-Apr-21 17:33N 37°58' W 028°57'1312.6
2014-Apr-21 16:33N 38°03' W 028°42'1312.8
2014-Apr-21 15:33N 38°08' W 028°27'1212.4
2014-Apr-21 14:33N 38°13' W 028°13'1212.1
2014-Apr-21 13:33N 38°17' W 027°59'1212.5
2014-Apr-21 12:33N 38°22' W 027°44'1212.4
2014-Apr-21 11:34N 38°27' W 027°30'1313.0
2014-Apr-21 10:33N 38°32' W 027°15'1413.6
2014-Apr-21 09:33N 38°39' W 026°59'  
2014-Apr-17 17:21N 50°12' W 001°42'1316.2
2014-Apr-17 16:33N 50°16' W 001°22'1717.4
2014-Apr-17 15:33N 50°20' W 000°56'1716.6
2014-Apr-17 14:33N 50°25' W 000°31'1515.4
2014-Apr-17 13:33N 50°29' W 000°08'1614.0
2014-Apr-17 12:26N 50°33' E 000°16'1112.8
2014-Apr-17 11:33N 50°36' E 000°33'1212.4
2014-Apr-17 10:33N 50°44' E 000°48'1313.1
2014-Apr-17 09:33N 50°52' E 001°04'1515.4
2014-Apr-17 08:33N 51°02' E 001°23'1716.8
2014-Apr-17 07:33N 51°13' E 001°43'1515.2
2014-Apr-17 06:34N 51°24' E 001°59'1413.6
2014-Apr-17 05:33N 51°21' E 002°20'1313.3
2014-Apr-17 04:34N 51°23' E 002°41'1211.7
2014-Apr-17 03:33N 51°24' E 003°00'1212.0
2014-Apr-17 02:34N 51°25' E 003°19'1110.7
2014-Apr-17 01:33N 51°26' E 003°36'1010.4
2014-Apr-17 00:33N 51°21' E 003°51'8 7.7
2014-Apr-16 23:33N 51°24' E 004°02'9 9.3
2014-Apr-16 22:33N 51°21' E 004°16'5 4.5
2014-Apr-16 21:34N 51°17' E 004°20'0 0.3
2014-Apr-16 20:33N 51°17' E 004°20'1 1.3
2014-Apr-16 19:31N 51°17' E 004°23'0 0.0
2014-Apr-16 18:28N 51°17' E 004°23'0 0.0
2014-Apr-16 17:31N 51°17' E 004°23'0 0.0
2014-Apr-16 16:31N 51°17' E 004°23'0 0.0
2014-Apr-16 15:28N 51°17' E 004°23'0 0.0
2014-Apr-16 14:28N 51°17' E 004°23'0 0.0
2014-Apr-16 13:31N 51°17' E 004°23'0 0.0
2014-Apr-16 12:31N 51°17' E 004°23'0 0.0
2014-Apr-16 11:31N 51°17' E 004°23'0 0.0
2014-Apr-16 10:31N 51°17' E 004°23'0 0.0
2014-Apr-16 09:25N 51°17' E 004°23'0 0.0
2014-Apr-16 08:31N 51°17' E 004°23'0 0.0
2014-Apr-16 07:31N 51°17' E 004°23'0 0.0
2014-Apr-16 06:31N 51°17' E 004°23'0 0.0
2014-Apr-16 05:31N 51°17' E 004°23'0 0.0
2014-Apr-16 04:31N 51°17' E 004°23'0 0.0
2014-Apr-16 03:28N 51°17' E 004°23'0 0.0
2014-Apr-16 02:28N 51°17' E 004°23'0 0.0
2014-Apr-16 01:26N 51°17' E 004°23'2 1.9
2014-Apr-16 00:34N 51°17' E 004°20'3 3.3
2014-Apr-15 23:34N 51°19' E 004°16'9 9.1
2014-Apr-15 22:34N 51°23' E 004°03'9 8.9
2014-Apr-15 21:34N 51°21' E 003°49'1110.5
2014-Apr-15 20:33N 51°26' E 003°34'10 9.8
2014-Apr-15 19:33N 51°34' E 003°25'1010.0
2014-Apr-15 18:32N 51°42' E 003°15'1010.3
2014-Apr-15 17:33N 51°52' E 003°16'1414.1
2014-Apr-15 16:32N 52°06' E 003°21'1613.4
2014-Apr-15 15:21N 52°21' E 003°27'1113.0
2014-Apr-15 14:31N 52°32' E 003°34'13 6.7
2014-Apr-15 12:32N 52°44' E 003°41'1414.4
2014-Apr-15 11:34N 52°55' E 003°56'1515.4
2014-Apr-15 10:33N 53°06' E 004°14'3015.3
2014-Apr-15 08:34N 53°33' E 004°37'23414.6
2014-Apr-14 16:32N 56°55' E 008°04'7712.9
2014-Apr-14 10:32N 57°42' E 009°57'1212.8
2014-Apr-14 09:33N 57°47' E 010°19'1312.8
2014-Apr-14 08:33N 57°47' E 010°43'1312.8
2014-Apr-14 07:33N 57°34' E 010°45'17713.3
2014-Apr-13 18:14N 54°38' E 011°07'811.6
2014-Apr-13 17:33N 54°34' E 011°19'1211.8
2014-Apr-13 16:33N 54°29' E 011°37'1312.7
2014-Apr-13 15:34N 54°22' E 011°56'1211.7
2014-Apr-13 14:34N 54°11' E 012°05'2 1.0
2014-Apr-13 12:30N 54°09' E 012°06'0 0.0
2014-Apr-13 11:24N 54°09' E 012°06'0 0.0
2014-Apr-13 10:30N 54°09' E 012°06'0 0.0
2014-Apr-13 09:30N 54°09' E 012°06'0 0.0
2014-Apr-13 08:30N 54°09' E 012°06'0 0.0
2014-Apr-13 07:30N 54°09' E 012°06'0 0.0
2014-Apr-13 06:33N 54°09' E 012°06'0 0.0
2014-Apr-13 05:24N 54°09' E 012°06'0 0.0
2014-Apr-13 04:33N 54°09' E 012°06'0 0.0
2014-Apr-13 03:30N 54°09' E 012°06'0 0.0
2014-Apr-13 02:30N 54°09' E 012°06'0 0.0
2014-Apr-13 01:30N 54°09' E 012°06'0 0.0
2014-Apr-13 00:21N 54°09' E 012°06'0 0.0
2014-Apr-12 23:27N 54°09' E 012°06'0 0.0
2014-Apr-12 22:30N 54°09' E 012°06'0 0.0
2014-Apr-12 21:33N 54°09' E 012°06'0 0.0
2014-Apr-12 20:33N 54°09' E 012°06'0 0.0
2014-Apr-12 19:30N 54°09' E 012°06'0 0.0
2014-Apr-12 18:30N 54°09' E 012°06'0 0.0
2014-Apr-12 17:33N 54°09' E 012°06'0 0.0
2014-Apr-12 16:30N 54°09' E 012°06'0 0.0
2014-Apr-12 15:27N 54°09' E 012°06'0 0.0
2014-Apr-12 14:30N 54°09' E 012°06'0 0.0
2014-Apr-12 13:30N 54°09' E 012°06'0 0.0
2014-Apr-12 12:27N 54°09' E 012°06'0 0.0
2014-Apr-12 11:33N 54°09' E 012°06'0 0.0
2014-Apr-12 10:30N 54°09' E 012°06'0 0.0
2014-Apr-12 09:30N 54°09' E 012°06'0 0.0
2014-Apr-12 08:27N 54°09' E 012°06'0 0.0
2014-Apr-12 07:30N 54°09' E 012°06'0 0.0
2014-Apr-12 06:12N 54°09' E 012°06'0 0.0
2014-Apr-12 05:18N 54°09' E 012°06'0 0.0
2014-Apr-12 04:33N 54°09' E 012°06'0 0.0
2014-Apr-12 03:27N 54°09' E 012°06'0 0.0
2014-Apr-12 02:33N 54°09' E 012°06'0 0.0
2014-Apr-12 01:33N 54°09' E 012°06'0 0.0
2014-Apr-12 00:33N 54°09' E 012°06'0 0.0
2014-Apr-11 23:30N 54°09' E 012°06'0 0.0
2014-Apr-11 22:33N 54°09' E 012°06'  

Dump ship's entire track history

sailing weather and tide predictions

BBC Congo — V2EL3 — position and weather